createdAt,value
2016-05-11T00:00:48.371Z,0
2016-05-11T00:01:51.373Z,0
2016-05-11T00:03:01.158Z,0
2016-05-11T00:04:01.114Z,0
2016-05-11T00:05:07.616Z,0
2016-05-11T00:06:14.103Z,0
2016-05-11T00:07:04.044Z,0
2016-05-11T00:08:19.764Z,0
2016-05-11T00:09:19.753Z,0
2016-05-11T00:09:48.505Z,0
2016-05-11T00:10:48.554Z,0
2016-05-11T00:11:48.636Z,0
2016-05-11T00:13:01.153Z,0
2016-05-11T00:14:01.390Z,0
2016-05-11T00:15:08.019Z,0
2016-05-11T00:16:07.849Z,0
2016-05-11T00:16:48.508Z,0
2016-05-11T00:18:07.620Z,0
2016-05-11T00:18:51.763Z,0
2016-05-11T00:20:14.219Z,0
2016-05-11T00:20:48.706Z,0
2016-05-11T00:22:45.712Z,0
2016-05-11T00:22:58.384Z,0
2016-05-11T00:23:58.276Z,0
2016-05-11T00:25:11.218Z,0
2016-05-11T00:25:58.282Z,0
2016-05-11T00:27:17.504Z,0
2016-05-11T00:27:58.179Z,0
2016-05-11T00:30:01.121Z,0
2016-05-11T00:30:33.264Z,0
2016-05-11T00:32:10.939Z,0
2016-05-11T00:32:23.564Z,0
2016-05-11T00:33:23.614Z,0
2016-05-11T00:34:36.416Z,0
2016-05-11T00:35:42.872Z,0
2016-05-11T00:36:49.375Z,0
2016-05-11T00:37:42.767Z,0
2016-05-11T00:38:55.036Z,0
2016-05-11T00:39:23.739Z,0
2016-05-11T00:40:23.773Z,0
2016-05-11T00:41:36.622Z,0
2016-05-11T00:42:23.497Z,0
2016-05-11T00:43:23.812Z,0
2016-05-11T00:44:36.568Z,0
2016-05-11T00:45:36.633Z,0
2016-05-11T00:47:14.214Z,0
2016-05-11T00:47:26.779Z,0
2016-05-11T00:48:45.938Z,0
2016-05-11T00:49:39.660Z,0
2016-05-11T00:50:26.974Z,0
2016-05-11T00:51:46.227Z,0
2016-05-11T00:52:26.995Z,0
2016-05-11T00:54:29.595Z,0
2016-05-11T00:54:41.954Z,0
2016-05-11T00:56:45.506Z,0
2016-05-11T00:58:42.481Z,0
2016-05-11T00:58:55.231Z,0
2016-05-11T00:59:54.920Z,0
2016-05-11T01:00:55.189Z,0
2016-05-11T01:02:07.659Z,0
2016-05-11T01:02:55.069Z,0
2016-05-11T01:03:55.259Z,0
2016-05-11T01:05:08.028Z,0
2016-05-11T01:05:55.343Z,0
2016-05-11T01:07:20.845Z,0
2016-05-11T01:07:55.380Z,0
2016-05-11T01:09:26.525Z,0
2016-05-11T01:10:14.572Z,0
2016-05-11T01:10:55.372Z,0
2016-05-11T01:12:57.987Z,0
2016-05-11T01:13:10.550Z,0
2016-05-11T01:14:10.380Z,0
2016-05-11T01:15:10.430Z,0
2016-05-11T01:16:23.619Z,0
2016-05-11T01:17:12.155Z,0
2016-05-11T01:18:10.765Z,0
2016-05-11T01:19:29.990Z,0
2016-05-11T01:20:10.802Z,0
2016-05-11T01:21:42.105Z,0
2016-05-11T01:22:30.029Z,0
2016-05-11T01:23:42.173Z,0
2016-05-11T01:24:42.050Z,0
2016-05-11T01:25:10.768Z,0
2016-05-11T01:27:13.509Z,0
2016-05-11T01:27:26.059Z,0
2016-05-11T01:28:26.280Z,0
2016-05-11T01:29:27.485Z,0
2016-05-11T01:30:26.753Z,0
2016-05-11T01:31:26.256Z,0
2016-05-11T01:32:26.229Z,0
2016-05-11T01:33:38.746Z,0
2016-05-11T01:34:27.749Z,0
2016-05-11T01:35:26.345Z,0
2016-05-11T01:36:29.598Z,0
2016-05-11T01:37:26.366Z,0
2016-05-11T01:38:26.245Z,0
2016-05-11T01:39:39.169Z,0
2016-05-11T01:40:39.186Z,0
2016-05-11T01:41:57.753Z,0
2016-05-11T01:42:45.708Z,0
2016-05-11T01:43:26.570Z,0
2016-05-11T01:45:36.232Z,0
2016-05-11T01:46:36.187Z,0
2016-05-11T01:47:36.049Z,0
2016-05-11T01:48:36.241Z,0
2016-05-11T01:49:36.274Z,0
2016-05-11T01:50:36.277Z,0
2016-05-11T01:51:36.154Z,0
2016-05-11T01:52:36.313Z,0
2016-05-11T01:53:36.332Z,0
2016-05-11T01:54:36.037Z,0
2016-05-11T01:55:36.368Z,0
2016-05-11T01:56:36.277Z,0
2016-05-11T01:57:36.452Z,0
2016-05-11T01:58:37.985Z,0
2016-05-11T01:59:37.738Z,0
2016-05-11T02:00:36.897Z,0
2016-05-11T02:01:36.368Z,0
2016-05-11T02:02:49.261Z,0
2016-05-11T02:03:37.952Z,0
2016-05-11T02:04:36.565Z,0
2016-05-11T02:05:48.989Z,0
2016-05-11T02:06:37.881Z,0
2016-05-11T02:08:33.575Z,0
2016-05-11T02:08:46.153Z,0
2016-05-11T02:10:05.483Z,0
2016-05-11T02:10:46.299Z,0
2016-05-11T02:12:48.867Z,0
2016-05-11T02:13:01.617Z,0
2016-05-11T02:14:01.400Z,0
2016-05-11T02:15:14.497Z,0
2016-05-11T02:16:14.203Z,0
2016-05-11T02:17:27.286Z,0
2016-05-11T02:18:01.677Z,0
2016-05-11T02:19:01.571Z,0
2016-05-11T02:20:01.667Z,0
2016-05-11T02:21:14.279Z,0
2016-05-11T02:22:14.485Z,0
2016-05-11T02:23:14.488Z,0
2016-05-11T02:24:58.727Z,0
2016-05-11T02:25:30.651Z,0
2016-05-11T02:27:08.373Z,0
2016-05-11T02:27:21.029Z,0
2016-05-11T02:29:18.019Z,0
2016-05-11T02:29:30.709Z,0
2016-05-11T02:30:36.931Z,0
2016-05-11T02:31:32.152Z,0
2016-05-11T02:32:30.765Z,0
2016-05-11T02:33:30.751Z,0
2016-05-11T02:34:43.614Z,0
2016-05-11T02:35:30.803Z,0
2016-05-11T02:36:43.275Z,0
2016-05-11T02:37:43.590Z,0
2016-05-11T02:38:31.531Z,0
2016-05-11T02:39:56.424Z,0
2016-05-11T02:40:43.645Z,0
2016-05-11T02:41:30.758Z,0
2016-05-11T02:42:30.838Z,0
2016-05-11T02:43:30.950Z,0
2016-05-11T02:44:34.015Z,0
2016-05-11T02:45:30.987Z,0
2016-05-11T02:46:30.864Z,0
2016-05-11T02:47:34.070Z,0
2016-05-11T02:48:30.917Z,0
2016-05-11T02:49:31.138Z,0
2016-05-11T02:50:30.782Z,0
2016-05-11T02:51:43.894Z,0
2016-05-11T02:52:30.818Z,0
2016-05-11T02:53:56.852Z,0
2016-05-11T02:54:31.230Z,0
2016-05-11T02:56:36.813Z,0
2016-05-11T02:56:49.016Z,0
2016-05-11T02:57:49.346Z,0
2016-05-11T02:58:49.350Z,0
2016-05-11T03:00:01.650Z,0
2016-05-11T03:01:08.465Z,0
2016-05-11T03:01:49.451Z,0
2016-05-11T03:02:49.439Z,0
2016-05-11T03:03:49.519Z,0
2016-05-11T03:04:49.522Z,0
2016-05-11T03:05:49.401Z,0
2016-05-11T03:06:49.575Z,0
2016-05-11T03:07:49.578Z,0
2016-05-11T03:08:49.580Z,0
2016-05-11T03:09:49.598Z,0
2016-05-11T03:10:49.491Z,0
2016-05-11T03:12:08.556Z,0
2016-05-11T03:13:02.403Z,0
2016-05-11T03:15:24.658Z,0
2016-05-11T03:16:18.630Z,0
2016-05-11T03:16:52.914Z,0
2016-05-11T03:17:52.948Z,0
2016-05-11T03:18:56.013Z,0
2016-05-11T03:20:02.156Z,5
2016-05-11T03:20:52.987Z,5
2016-05-11T03:22:05.583Z,5
2016-05-11T03:22:53.008Z,5
2016-05-11T03:23:56.088Z,5
2016-05-11T03:25:05.624Z,5
2016-05-11T03:25:52.907Z,5
2016-05-11T03:27:18.613Z,5
2016-05-11T03:27:54.569Z,5
2016-05-11T03:28:53.180Z,10
2016-05-11T03:30:05.886Z,10
2016-05-11T03:30:56.114Z,10
2016-05-11T03:32:12.438Z,10
2016-05-11T03:33:05.870Z,10
2016-05-11T03:33:53.366Z,10
2016-05-11T03:34:53.424Z,15
2016-05-11T03:35:53.478Z,15
2016-05-11T03:37:12.698Z,15
2016-05-11T03:37:53.558Z,20
2016-05-11T03:39:24.841Z,20
2016-05-11T03:39:55.186Z,20
2016-05-11T03:40:53.311Z,20
2016-05-11T03:42:06.240Z,25
2016-05-11T03:43:12.732Z,25
2016-05-11T03:44:19.396Z,30
2016-05-11T03:45:19.717Z,30
2016-05-11T03:45:54.067Z,30
2016-05-11T03:47:22.588Z,30
2016-05-11T03:47:55.201Z,35
2016-05-11T03:50:00.101Z,35
2016-05-11T03:50:53.731Z,40
2016-05-11T03:52:06.467Z,40
2016-05-11T03:52:55.018Z,45
2016-05-11T03:54:58.493Z,45
2016-05-11T03:55:58.387Z,50
2016-05-11T03:57:11.280Z,55
2016-05-11T03:58:11.268Z,55
2016-05-11T03:58:58.552Z,60
2016-05-11T04:00:18.086Z,60
2016-05-11T04:00:58.621Z,65
2016-05-11T04:02:24.326Z,65
2016-05-11T04:03:01.689Z,70
2016-05-11T04:04:29.926Z,70
2016-05-11T04:05:17.881Z,75
2016-05-11T04:06:00.165Z,75
2016-05-11T04:07:29.980Z,75
2016-05-11T04:08:05.062Z,80
2016-05-11T04:09:58.786Z,85
2016-05-11T04:11:11.382Z,85
2016-05-11T04:12:11.696Z,90
2016-05-11T04:13:24.527Z,90
2016-05-11T04:14:50.877Z,90
2016-05-11T04:15:29.768Z,90
2016-05-11T04:16:16.599Z,90
2016-05-11T04:17:03.601Z,95
2016-05-11T04:18:03.619Z,95
2016-05-11T04:19:22.935Z,100
2016-05-11T04:20:06.671Z,100
2016-05-11T04:21:35.052Z,105
2016-05-11T04:22:16.443Z,105
2016-05-11T04:24:16.167Z,110
2016-05-11T04:25:03.748Z,115
2016-05-11T04:27:00.723Z,120
2016-05-11T04:27:13.254Z,120
2016-05-11T04:28:13.365Z,120
2016-05-11T04:29:13.118Z,125
2016-05-11T04:30:13.323Z,125
2016-05-11T04:31:26.045Z,130
2016-05-11T04:32:26.110Z,130
2016-05-11T04:33:13.379Z,135
2016-05-11T04:34:13.287Z,135
2016-05-11T04:35:25.805Z,140
2016-05-11T04:36:25.871Z,140
2016-05-11T04:37:13.420Z,145
2016-05-11T04:38:13.469Z,145
2016-05-11T04:39:13.458Z,150
2016-05-11T04:40:19.757Z,150
2016-05-11T04:41:26.369Z,155
2016-05-11T04:42:25.950Z,160
2016-05-11T04:43:33.361Z,160
2016-05-11T04:44:39.396Z,165
2016-05-11T04:45:26.036Z,165
2016-05-11T04:47:16.166Z,170
2016-05-11T04:47:28.682Z,170
2016-05-11T04:48:28.544Z,175
2016-05-11T04:50:22.393Z,175
2016-05-11T04:50:54.380Z,180
2016-05-11T04:52:34.807Z,180
2016-05-11T04:53:06.651Z,185
2016-05-11T04:53:47.623Z,185
2016-05-11T04:55:44.629Z,195
2016-05-11T04:55:56.832Z,195
2016-05-11T04:58:06.696Z,205
2016-05-11T04:59:19.511Z,215
2016-05-11T05:00:31.906Z,220
2016-05-11T05:01:19.469Z,225
2016-05-11T05:02:38.647Z,235
2016-05-11T05:03:22.319Z,240
2016-05-11T05:05:28.168Z,290
2016-05-11T05:05:40.686Z,320
2016-05-11T05:06:40.689Z,540
2016-05-11T05:07:59.972Z,805
2016-05-11T05:08:42.538Z,825
2016-05-11T05:10:43.341Z,850
2016-05-11T05:11:21.372Z,865
2016-05-11T05:11:55.577Z,885
2016-05-11T05:13:27.189Z,865
2016-05-11T05:14:08.755Z,855
2016-05-11T05:14:57.491Z,860
2016-05-11T05:16:16.510Z,835
2016-05-11T05:17:08.700Z,825
2016-05-11T05:18:27.359Z,840
2016-05-11T05:19:10.533Z,830
2016-05-11T05:20:53.023Z,840
2016-05-11T05:21:05.257Z,840
2016-05-11T05:22:05.698Z,850
2016-05-11T05:23:07.154Z,870
2016-05-11T05:24:18.593Z,885
2016-05-11T05:26:15.380Z,905
2016-05-11T05:26:28.051Z,900
2016-05-11T05:27:34.386Z,890
2016-05-11T05:28:27.932Z,905
2016-05-11T05:29:40.875Z,930
2016-05-11T05:30:40.926Z,940
2016-05-11T05:31:48.740Z,955
2016-05-11T05:33:31.212Z,990
2016-05-11T05:34:50.311Z,995
2016-05-11T05:35:34.329Z,980
2016-05-11T05:37:34.038Z,1015
2016-05-11T05:38:12.553Z,995
2016-05-11T05:38:46.462Z,980
2016-05-11T05:39:46.778Z,1035
2016-05-11T05:40:59.358Z,1075
2016-05-11T05:41:46.720Z,1070
2016-05-11T05:43:46.850Z,950
2016-05-11T05:44:18.600Z,950
2016-05-11T05:46:21.185Z,1110
2016-05-11T05:46:33.905Z,1120
2016-05-11T05:47:33.893Z,1150
2016-05-11T05:48:36.802Z,1130
2016-05-11T05:49:35.274Z,1120
2016-05-11T05:50:46.729Z,1120
2016-05-11T05:52:24.529Z,1195
2016-05-11T05:52:56.484Z,1180
2016-05-11T05:53:37.065Z,1205
2016-05-11T05:55:42.867Z,1225
2016-05-11T05:56:08.304Z,1225
2016-05-11T05:56:55.573Z,1235
2016-05-11T05:57:58.795Z,1290
2016-05-11T05:58:55.594Z,1300
2016-05-11T06:00:08.425Z,1310
2016-05-11T06:00:56.959Z,1320
2016-05-11T06:02:52.746Z,1410
2016-05-11T06:03:55.764Z,1330
2016-05-11T06:04:08.608Z,1325
2016-05-11T06:05:08.501Z,1355
2016-05-11T06:06:58.694Z,1400
2016-05-11T06:07:30.053Z,1395
2016-05-11T06:08:30.447Z,1365
2016-05-11T06:10:08.390Z,1330
2016-05-11T06:10:27.328Z,1335
2016-05-11T06:12:23.785Z,1395
2016-05-11T06:13:02.195Z,1390
2016-05-11T06:13:36.494Z,1410
2016-05-11T06:15:39.546Z,1420
2016-05-11T06:16:18.171Z,1450
2016-05-11T06:16:52.158Z,1450
2016-05-11T06:18:57.429Z,1345
2016-05-11T06:19:39.042Z,1360
2016-05-11T06:20:29.292Z,1405
2016-05-11T06:21:24.059Z,1435
2016-05-11T06:23:19.003Z,1515
2016-05-11T06:23:54.333Z,1515
2016-05-11T06:24:45.179Z,1510
2016-05-11T06:25:37.573Z,1535
2016-05-11T06:26:35.104Z,1535
2016-05-11T06:27:34.232Z,1520
2016-05-11T06:28:31.766Z,1460
2016-05-11T06:29:31.597Z,1460
2016-05-11T06:30:32.428Z,1475
2016-05-11T06:31:31.665Z,1510
2016-05-11T06:32:31.854Z,1570
2016-05-11T06:33:32.233Z,1580
2016-05-11T06:34:31.892Z,1535
2016-05-11T06:35:44.382Z,1550
2016-05-11T06:36:31.976Z,1560
2016-05-11T06:37:31.900Z,1575
2016-05-11T06:38:32.028Z,1535
2016-05-11T06:39:32.108Z,1455
2016-05-11T06:40:32.142Z,1500
2016-05-11T06:41:32.379Z,1540
2016-05-11T06:42:33.788Z,1520
2016-05-11T06:43:32.041Z,1545
2016-05-11T06:44:32.277Z,1580
2016-05-11T06:45:32.499Z,1600
2016-05-11T06:46:32.315Z,1620
2016-05-11T06:47:32.364Z,1600
2016-05-11T06:48:32.242Z,1605
2016-05-11T06:49:32.260Z,1640
2016-05-11T06:50:32.294Z,1635
2016-05-11T06:51:33.766Z,1645
2016-05-11T06:52:32.362Z,1625
2016-05-11T06:53:32.615Z,1700
2016-05-11T06:54:32.602Z,1830
2016-05-11T06:55:32.573Z,1765
2016-05-11T06:56:32.373Z,1650
2016-05-11T06:57:32.422Z,1625
2016-05-11T06:58:34.159Z,1705
2016-05-11T06:59:45.477Z,1775
2016-05-11T07:00:33.024Z,1800
2016-05-11T07:02:36.077Z,1660
2016-05-11T07:03:36.125Z,1640
2016-05-11T07:04:36.113Z,1665
2016-05-11T07:05:36.241Z,1745
2016-05-11T07:06:36.212Z,1740
2016-05-11T07:08:26.686Z,1660
2016-05-11T07:09:04.861Z,1620
2016-05-11T07:09:39.082Z,1645
2016-05-11T07:10:39.413Z,1700
2016-05-11T07:12:30.212Z,1745
2016-05-11T07:13:08.418Z,1735
2016-05-11T07:13:42.843Z,1675
2016-05-11T07:14:42.814Z,1610
2016-05-11T07:15:43.114Z,1755
2016-05-11T07:16:43.304Z,1795
2016-05-11T07:17:43.213Z,1750
2016-05-11T07:18:43.263Z,1690
2016-05-11T07:19:43.155Z,1675
2016-05-11T07:20:43.174Z,1700
2016-05-11T07:21:43.224Z,1645
2016-05-11T07:22:46.116Z,1675
2016-05-11T07:23:43.260Z,1770
2016-05-11T07:24:43.326Z,1740
2016-05-11T07:25:43.109Z,1780
2016-05-11T07:26:43.316Z,1805
2016-05-11T07:27:43.460Z,1795
2016-05-11T07:28:43.446Z,1690
2016-05-11T07:29:43.510Z,1705
2016-05-11T07:30:43.888Z,1735
2016-05-11T07:31:43.626Z,1730
2016-05-11T07:32:43.612Z,1780
2016-05-11T07:33:43.631Z,1810
2016-05-11T07:34:43.384Z,1775
2016-05-11T07:35:43.559Z,1735
2016-05-11T07:36:43.795Z,1735
2016-05-11T07:37:56.517Z,1795
2016-05-11T07:38:43.832Z,1740
2016-05-11T07:39:43.851Z,1715
2016-05-11T07:40:43.931Z,1765
2016-05-11T07:41:43.918Z,1715
2016-05-11T07:42:43.968Z,1720
2016-05-11T07:43:56.752Z,1765
2016-05-11T07:44:46.770Z,1705
2016-05-11T07:46:05.008Z,1635
2016-05-11T07:46:50.354Z,1645
2016-05-11T07:48:09.872Z,1585
2016-05-11T07:48:52.062Z,1595
2016-05-11T07:50:46.911Z,1585
2016-05-11T07:51:00.021Z,1555
2016-05-11T07:51:59.616Z,1580
2016-05-11T07:53:05.947Z,1510
2016-05-11T07:53:59.405Z,1545
2016-05-11T07:54:59.594Z,1600
2016-05-11T07:55:59.816Z,1565
2016-05-11T07:56:59.802Z,1475
2016-05-11T07:57:59.695Z,1215
2016-05-11T07:58:59.699Z,995
2016-05-11T07:59:59.749Z,910
2016-05-11T08:01:00.048Z,620
2016-05-11T08:02:12.738Z,385
2016-05-11T08:03:00.006Z,365
2016-05-11T08:04:57.027Z,375
2016-05-11T08:05:09.762Z,375
2016-05-11T08:06:09.624Z,385
2016-05-11T08:07:09.814Z,380
2016-05-11T08:08:09.832Z,385
2016-05-11T08:09:09.725Z,385
2016-05-11T08:10:09.759Z,385
2016-05-11T08:11:09.950Z,390
2016-05-11T08:12:22.562Z,395
2016-05-11T08:13:22.736Z,390
2016-05-11T08:14:10.051Z,390
2016-05-11T08:16:00.994Z,390
2016-05-11T08:16:39.353Z,395
2016-05-11T08:17:13.747Z,395
2016-05-11T08:18:13.422Z,400
2016-05-11T08:19:13.767Z,400
2016-05-11T08:20:13.708Z,405
2016-05-11T08:21:13.852Z,405
2016-05-11T08:22:13.729Z,410
2016-05-11T08:23:13.732Z,410
2016-05-11T08:24:13.985Z,410
2016-05-11T08:25:13.628Z,410
2016-05-11T08:26:13.974Z,410
2016-05-11T08:27:13.993Z,410
2016-05-11T08:28:13.714Z,410
2016-05-11T08:29:13.826Z,410
2016-05-11T08:30:13.954Z,405
2016-05-11T08:31:26.957Z,410
2016-05-11T08:32:14.006Z,410
2016-05-11T08:33:14.212Z,410
2016-05-11T08:34:26.824Z,405
2016-05-11T08:35:14.076Z,400
2016-05-11T08:36:14.126Z,400
2016-05-11T08:37:14.270Z,400
2016-05-11T08:38:14.350Z,400
2016-05-11T08:39:14.181Z,400
2016-05-11T08:40:14.231Z,400
2016-05-11T08:41:14.234Z,405
2016-05-11T08:42:14.439Z,400
2016-05-11T08:43:14.301Z,400
2016-05-11T08:44:14.414Z,405
2016-05-11T08:45:14.509Z,405
2016-05-11T08:46:14.465Z,405
2016-05-11T08:47:14.609Z,405
2016-05-11T08:48:14.611Z,410
2016-05-11T08:49:14.490Z,410
2016-05-11T08:50:14.648Z,405
2016-05-11T08:51:14.541Z,415
2016-05-11T08:52:14.716Z,415
2016-05-11T08:53:14.859Z,415
2016-05-11T08:54:14.768Z,415
2016-05-11T08:55:14.739Z,415
2016-05-11T08:56:14.680Z,420
2016-05-11T08:57:14.855Z,420
2016-05-11T08:58:14.732Z,415
2016-05-11T08:59:14.907Z,415
2016-05-11T09:00:15.019Z,420
2016-05-11T09:01:14.818Z,415
2016-05-11T09:02:15.165Z,410
2016-05-11T09:03:15.027Z,410
2016-05-11T09:04:15.155Z,405
2016-05-11T09:05:14.923Z,405
2016-05-11T09:06:15.128Z,400
2016-05-11T09:07:14.960Z,395
2016-05-11T09:08:15.149Z,395
2016-05-11T09:09:15.120Z,395
2016-05-11T09:10:15.218Z,390
2016-05-11T09:11:14.923Z,390
2016-05-11T09:12:15.254Z,385
2016-05-11T09:13:21.429Z,385
2016-05-11T09:14:15.306Z,380
2016-05-11T09:15:15.075Z,380
2016-05-11T09:16:31.342Z,380
2016-05-11T09:17:15.252Z,370
2016-05-11T09:19:25.100Z,365
2016-05-11T09:20:44.198Z,360
2016-05-11T09:21:26.466Z,360
2016-05-11T09:22:25.047Z,355
2016-05-11T09:23:37.800Z,350
2016-05-11T09:24:26.349Z,350
2016-05-11T09:26:21.792Z,350
2016-05-11T09:26:34.323Z,345
2016-05-11T09:27:34.200Z,355
2016-05-11T09:28:47.097Z,345
2016-05-11T09:29:35.941Z,340
2016-05-11T09:31:45.008Z,340
2016-05-11T09:33:43.420Z,340
2016-05-11T09:34:15.298Z,340
2016-05-11T09:34:56.129Z,340
2016-05-11T09:35:59.178Z,340
2016-05-11T09:37:08.977Z,340
2016-05-11T09:38:02.308Z,340
2016-05-11T09:40:05.924Z,340
2016-05-11T09:41:02.613Z,340
2016-05-11T09:41:18.317Z,340
2016-05-11T09:42:18.632Z,340
2016-05-11T09:43:31.415Z,340
2016-05-11T09:44:37.887Z,340
2016-05-11T09:46:09.361Z,335
2016-05-11T09:46:41.267Z,335
2016-05-11T09:47:22.114Z,335
2016-05-11T09:48:53.384Z,330
2016-05-11T09:49:25.025Z,330
2016-05-11T09:50:21.997Z,330
2016-05-11T09:51:34.765Z,330
2016-05-11T09:52:34.784Z,330
2016-05-11T09:53:47.805Z,325
2016-05-11T09:54:47.807Z,325
2016-05-11T09:55:53.638Z,320
2016-05-11T09:57:00.750Z,315
2016-05-11T09:57:22.344Z,315
2016-05-11T09:58:22.378Z,315
2016-05-11T09:59:35.130Z,310
2016-05-11T10:00:22.321Z,305
2016-05-11T10:02:19.435Z,300
2016-05-11T10:02:57.876Z,295
2016-05-11T10:03:44.844Z,295
2016-05-11T10:05:03.522Z,290
2016-05-11T10:05:51.055Z,290
2016-05-11T10:07:37.683Z,285
2016-05-11T10:08:09.593Z,285
2016-05-11T10:08:50.204Z,285
2016-05-11T10:10:52.835Z,280
2016-05-11T10:11:24.726Z,280
2016-05-11T10:12:24.743Z,280
2016-05-11T10:14:33.843Z,280
2016-05-11T10:14:46.046Z,280
2016-05-11T10:16:17.379Z,280
2016-05-11T10:16:59.148Z,275
2016-05-11T10:17:46.460Z,275
2016-05-11T10:19:43.513Z,270
2016-05-11T10:20:21.875Z,270
2016-05-11T10:21:46.721Z,270
2016-05-11T10:23:14.569Z,270
2016-05-11T10:23:59.026Z,270
2016-05-11T10:24:27.401Z,270
2016-05-11T10:26:29.922Z,275
2016-05-11T10:26:55.191Z,275
2016-05-11T10:27:42.612Z,280
2016-05-11T10:29:39.336Z,295
2016-05-11T10:30:48.870Z,310
2016-05-11T10:32:43.673Z,295
2016-05-11T10:33:22.488Z,340
2016-05-11T10:34:59.212Z,375
2016-05-11T10:35:30.930Z,380
2016-05-11T10:36:11.762Z,380
2016-05-11T10:38:35.986Z,360
2016-05-11T10:39:45.457Z,355
2016-05-11T11:04:38.478Z,420
2016-05-11T11:06:41.202Z,395
2016-05-11T11:07:19.549Z,405
2016-05-11T11:07:53.736Z,395
2016-05-11T11:09:56.475Z,370
2016-05-11T11:10:21.899Z,370
2016-05-11T11:11:09.263Z,370
2016-05-11T11:13:06.173Z,390
2016-05-11T11:14:28.661Z,405
2016-05-11T11:15:13.898Z,435
2016-05-11T11:15:47.616Z,450
2016-05-11T11:16:41.087Z,465
2016-05-11T11:18:00.454Z,475
2016-05-11T11:19:01.862Z,470
2016-05-11T11:20:12.583Z,465
2016-05-11T11:21:37.977Z,470
2016-05-11T11:22:53.214Z,485
2016-05-11T11:23:24.951Z,480
2016-05-11T11:24:07.390Z,480
2016-05-11T11:26:08.459Z,440
2016-05-11T11:26:46.615Z,430
2016-05-11T11:27:20.992Z,415
2016-05-11T11:29:23.608Z,380
2016-05-11T11:30:01.906Z,375
2016-05-11T11:30:35.953Z,370
2016-05-11T11:32:36.319Z,365
2016-05-11T11:32:49.022Z,365
2016-05-11T11:33:48.853Z,355
2016-05-11T11:34:48.730Z,365
2016-05-11T11:36:01.844Z,375
2016-05-11T11:37:01.910Z,380
2016-05-11T11:38:14.944Z,380
2016-05-11T11:39:09.665Z,375
2016-05-11T11:41:17.561Z,375
2016-05-11T11:41:30.030Z,370
2016-05-11T11:43:30.238Z,375
2016-05-11T11:43:42.879Z,375
2016-05-11T11:45:33.463Z,385
2016-05-11T11:45:46.447Z,385
2016-05-11T11:47:48.734Z,370
2016-05-11T11:48:26.924Z,365
2016-05-11T11:49:01.349Z,365
2016-05-11T11:50:01.148Z,360
2016-05-11T11:51:02.916Z,370
2016-05-11T11:52:14.263Z,365
2016-05-11T11:53:14.140Z,360
2016-05-11T11:54:27.081Z,365
2016-05-11T11:55:58.571Z,360
2016-05-11T11:57:27.401Z,350
2016-05-11T11:57:40.058Z,350
2016-05-11T11:59:39.954Z,345
2016-05-11T11:59:52.626Z,345
2016-05-11T12:01:55.944Z,350
2016-05-11T12:02:22.477Z,350
2016-05-11T12:03:08.636Z,360
2016-05-11T12:05:44.063Z,345
2016-05-11T12:06:18.394Z,340
2016-05-11T12:08:24.353Z,320
2016-05-11T12:08:56.056Z,315
2016-05-11T12:11:05.736Z,335
2016-05-11T12:13:52.319Z,380
2016-05-11T12:14:40.135Z,380
2016-05-11T12:15:20.918Z,385
2016-05-11T12:17:20.955Z,405
2016-05-11T12:18:24.160Z,400
2016-05-11T12:19:33.804Z,405
2016-05-11T12:20:05.495Z,400
2016-05-11T12:20:46.463Z,405
2016-05-11T12:21:59.281Z,415
2016-05-11T12:22:46.421Z,420
2016-05-11T12:24:49.006Z,400
2016-05-11T12:25:20.711Z,400
2016-05-11T12:27:25.435Z,345
2016-05-11T12:28:09.392Z,340
2016-05-11T12:29:09.081Z,330
2016-05-11T12:29:38.144Z,320
2016-05-11T12:31:42.164Z,315
2016-05-11T12:32:14.261Z,315
2016-05-11T12:32:54.933Z,315
2016-05-11T12:33:54.748Z,320
2016-05-11T12:35:07.566Z,335
2016-05-11T12:36:07.538Z,335
2016-05-11T12:37:51.972Z,370
2016-05-11T12:38:23.866Z,375
2016-05-11T12:40:39.106Z,365
2016-05-11T12:41:26.953Z,360
2016-05-11T12:42:39.267Z,355
2016-05-11T12:44:04.806Z,365
2016-05-11T12:44:48.775Z,375
2016-05-11T12:47:24.187Z,370
2016-05-11T12:47:58.516Z,365
2016-05-11T12:50:01.402Z,340
2016-05-11T12:50:39.589Z,340
2016-05-11T12:51:14.380Z,335
2016-05-11T12:53:17.063Z,315
2016-05-11T12:53:48.797Z,315
2016-05-11T12:54:29.598Z,310
2016-05-11T12:56:32.389Z,285
2016-05-11T12:57:10.720Z,280
2016-05-11T12:57:44.939Z,285
2016-05-11T12:59:47.556Z,280
2016-05-11T13:00:25.732Z,285
2016-05-11T13:01:00.970Z,290
2016-05-11T13:03:05.882Z,295
2016-05-11T13:03:44.210Z,295
2016-05-11T13:04:18.525Z,300
2016-05-11T13:06:21.016Z,310
2016-05-11T13:06:59.406Z,310
2016-05-11T13:07:33.581Z,310
2016-05-11T13:09:36.305Z,290
2016-05-11T13:10:14.542Z,285
2016-05-11T13:10:48.996Z,285
2016-05-11T13:12:51.672Z,280
2016-05-11T13:13:29.847Z,285
2016-05-11T13:14:04.194Z,285
2016-05-11T13:16:08.105Z,300
2016-05-11T13:16:46.152Z,310
2016-05-11T13:17:20.796Z,320
2016-05-11T13:19:17.895Z,335
2016-05-11T13:19:30.535Z,340
2016-05-11T13:21:27.525Z,345
2016-05-11T13:21:40.196Z,340
2016-05-11T13:22:40.075Z,335
2016-05-11T13:23:40.265Z,325
2016-05-11T13:24:40.298Z,325
2016-05-11T13:25:59.646Z,335
2016-05-11T13:26:40.023Z,340
2016-05-11T13:28:40.373Z,350
2016-05-11T13:29:43.390Z,350
2016-05-11T13:30:21.565Z,345
2016-05-11T13:31:09.381Z,340
2016-05-11T13:32:58.681Z,335
2016-05-11T13:33:37.073Z,330
2016-05-11T13:34:11.264Z,335
2016-05-11T13:35:42.531Z,340
2016-05-11T13:36:24.222Z,345
2016-05-11T13:37:24.208Z,350
2016-05-11T13:38:37.181Z,355
2016-05-11T13:41:18.047Z,345
2016-05-11T13:41:52.594Z,335
2016-05-11T13:42:52.285Z,325
2016-05-11T13:43:52.147Z,320
2016-05-11T13:45:05.091Z,320
2016-05-11T13:45:54.497Z,330
2016-05-11T13:48:08.207Z,340
2016-05-11T13:49:21.382Z,345
2016-05-11T13:49:55.335Z,345
2016-05-11T13:51:52.450Z,350
2016-05-11T13:52:05.140Z,350
2016-05-11T13:53:04.986Z,360
2016-05-11T13:54:05.020Z,355
2016-05-11T13:55:05.242Z,355
2016-05-11T13:56:17.838Z,360
2016-05-11T13:57:08.419Z,355
2016-05-11T13:59:40.924Z,355
2016-05-11T14:02:26.886Z,345
2016-05-11T14:03:39.670Z,355
2016-05-11T14:05:27.706Z,360
2016-05-11T14:08:15.605Z,365
2016-05-11T14:08:44.136Z,365
2016-05-11T14:09:44.451Z,370
2016-05-11T14:10:44.579Z,380
2016-05-11T14:11:47.536Z,375
2016-05-11T14:12:44.630Z,380
2016-05-11T14:15:13.154Z,385
2016-05-11T14:16:13.189Z,385
2016-05-11T14:16:50.564Z,385
2016-05-11T14:18:44.678Z,390
2016-05-11T14:18:57.068Z,390
2016-05-11T14:20:54.340Z,395
2016-05-11T14:21:10.062Z,395
2016-05-11T14:23:09.629Z,400
2016-05-11T14:23:48.723Z,400
2016-05-11T14:24:22.116Z,400
2016-05-11T14:25:56.806Z,405
2016-05-11T14:26:35.200Z,405
2016-05-11T14:27:53.624Z,405
2016-05-11T14:29:51.395Z,410
2016-05-11T14:31:55.245Z,410
2016-05-11T14:32:35.356Z,410
2016-05-11T14:33:29.220Z,410
2016-05-11T14:34:48.206Z,415
2016-05-11T14:35:30.099Z,415
2016-05-11T14:37:31.589Z,415
2016-05-11T14:38:03.497Z,415
2016-05-11T14:38:44.278Z,415
2016-05-11T14:40:41.395Z,415
2016-05-11T14:40:53.864Z,415
2016-05-11T14:42:57.149Z,415
2016-05-11T14:43:57.324Z,410
2016-05-11T14:44:57.202Z,410
2016-05-11T14:46:10.582Z,410
2016-05-11T14:47:10.147Z,410
2016-05-11T14:48:19.713Z,415
2016-05-11T14:49:16.496Z,415
2016-05-11T14:49:58.699Z,415
2016-05-11T14:51:23.329Z,415
2016-05-11T14:52:10.316Z,415
2016-05-11T14:53:28.882Z,415
2016-05-11T14:54:19.666Z,415
2016-05-11T14:55:28.793Z,415
2016-05-11T14:56:28.921Z,420
2016-05-11T14:59:00.302Z,415
2016-05-11T14:59:38.820Z,415
2016-05-11T15:00:12.838Z,415
2016-05-11T15:02:32.375Z,415
2016-05-11T15:03:15.768Z,420
2016-05-11T15:05:03.333Z,415
2016-05-11T15:05:16.196Z,415
2016-05-11T15:08:45.188Z,415
2016-05-11T15:09:31.987Z,415
2016-05-11T15:11:34.664Z,410
2016-05-11T15:12:34.839Z,410
2016-05-11T15:13:34.686Z,405
2016-05-11T15:14:37.782Z,405
2016-05-11T15:15:47.910Z,400
2016-05-11T15:16:34.788Z,400
2016-05-11T15:18:31.918Z,395
2016-05-11T15:18:50.824Z,395
2016-05-11T15:20:03.874Z,395
2016-05-11T15:20:44.674Z,390
2016-05-11T15:21:44.802Z,390
2016-05-11T15:23:03.944Z,385
2016-05-11T15:23:44.853Z,385
2016-05-11T15:25:10.327Z,385